Canada del Ucle, Argentina
Current Conditions -  °F | °C
As of 10:00 PM on Friday 19 Dec 2014 (Local Time) from SAAR Reporting Station
Clear Clear  
Wind Chill: 27°   Ceiling: Unl
Heat Index: 28°   Visibility: 6mi
Dew Point: 20°   Wind: 10mph
Humidity: 65%   Direction: 20°NNE
Pressure: 29.53"   Gusts: NA
Location:  33.41°S, 61.63°W
Report Text: SAAR 200100Z 02009KT CAVOK 27/20 Q1000
Loading
Personal Weather Stations






























Interactive Weather Map New forecast layout! Learn more

10-Day Weather Forecast

Advertisements
Track Severe Weather on mobile